Polis 9950 — SFC7700 — position and weather

sailwx.info

Track history (hours):
 
Tides and Currents Weather Stations Pressure Air Temp Water Temp Dewpoint Dewpoint Depression Visibility Wind Speed Wind Dir Waves Ship Positions

Polis 9950

Last reported at 2017-May-23 20:30 UTC. Time now 2017-May-23 20:45 UTC.
Position N 59°19' E 018°10'.

Length 16 m.

Type: Law enforcement. MMSI: 265565600.

Date/timePositionNaut miles runAvg speedWind from/ knotsBaromVisibWave heightAir tempDewpointWater temp
2017-May-23 20:30N 59°19' E 018°10'0 0.0
2017-May-23 20:01N 59°19' E 018°10'0 0.0
2017-May-23 19:30N 59°19' E 018°10'0 0.0
2017-May-23 19:00N 59°19' E 018°10'0 0.0
2017-May-23 18:30N 59°19' E 018°10'0 0.0
2017-May-23 18:00N 59°19' E 018°10'0 0.0
2017-May-23 17:30N 59°19' E 018°10'0 0.0
2017-May-23 17:00N 59°19' E 018°10'0 0.0
2017-May-23 16:31N 59°19' E 018°10'0 0.0
2017-May-23 16:00N 59°19' E 018°10'0 0.0
2017-May-23 15:30N 59°19' E 018°10'0 0.0
2017-May-23 15:00N 59°19' E 018°10'0 0.0
2017-May-23 14:31N 59°19' E 018°10'8 6.1
2017-May-23 13:08N 59°23' E 018°25'317.7
2017-May-23 12:59N 59°25' E 018°22'1418.9
2017-May-23 12:16N 59°31' E 018°46'2 9.2
2017-May-23 12:00N 59°33' E 018°42'9 3.5
2017-May-23 09:31N 59°29' E 018°27'042.0
2017-May-23 09:31N 59°29' E 018°26'714.7
2017-May-23 09:00N 59°22' E 018°19'510.3
2017-May-23 08:30N 59°20' E 018°10'1 1.4
2017-May-23 07:59N 59°19' E 018°10'0 0.0
2017-May-23 07:30N 59°19' E 018°10'0 0.0
2017-May-23 06:57N 59°19' E 018°10'0 0.0
2017-May-23 06:26N 59°19' E 018°10'0 0.0
2017-May-23 06:00N 59°19' E 018°10'0 0.0
2017-May-23 05:30N 59°19' E 018°10'0 0.0
2017-May-23 05:00N 59°19' E 018°10'0 0.0
2017-May-23 04:30N 59°19' E 018°10'0 0.0
2017-May-23 04:00N 59°19' E 018°10'0 0.0
2017-May-23 03:30N 59°19' E 018°10'0 0.0
2017-May-23 03:00N 59°19' E 018°10'0 0.0
2017-May-23 02:30N 59°19' E 018°10'0 0.0
2017-May-23 02:00N 59°19' E 018°10'0 0.0
2017-May-23 01:30N 59°19' E 018°10'0 0.0
2017-May-23 01:01N 59°19' E 018°10'0 0.0
2017-May-23 00:30N 59°19' E 018°10'0 0.0
2017-May-23 00:00N 59°19' E 018°10'0 0.0
2017-May-22 23:30N 59°19' E 018°10'0 0.0
2017-May-22 23:00N 59°19' E 018°10'0 0.0
2017-May-22 22:30N 59°19' E 018°10'0 0.0
2017-May-22 22:00N 59°19' E 018°10'0 0.0
2017-May-22 21:30N 59°19' E 018°10'0 0.0
2017-May-22 21:00N 59°19' E 018°10'0 0.1
2017-May-22 20:30N 59°19' E 018°10'3 5.1
2017-May-22 20:00N 59°21' E 018°13'8 9.9
2017-May-22 19:13N 59°20' E 018°28'313.5
2017-May-22 18:59N 59°22' E 018°24'613.1
2017-May-22 18:30N 59°18' E 018°13'1 1.2
2017-May-22 18:00N 59°18' E 018°14'1 1.0
2017-May-22 17:30N 59°18' E 018°15'2 4.3
2017-May-22 17:00N 59°20' E 018°13'1 2.0
2017-May-22 16:30N 59°20' E 018°11'2 5.0
2017-May-22 16:00N 59°19' E 018°06'0 0.0
2017-May-22 15:30N 59°19' E 018°06'0 0.4
2017-May-22 15:00N 59°19' E 018°07'2 1.6
2017-May-22 14:00N 59°19' E 018°10'0 0.0
2017-May-22 13:30N 59°19' E 018°10'0 0.0
2017-May-22 13:00N 59°19' E 018°10'0 0.0
2017-May-22 12:30N 59°19' E 018°10'0 0.0
2017-May-22 12:00N 59°19' E 018°10'3 6.5
2017-May-22 11:30N 59°21' E 018°15'510.9
2017-May-22 11:01N 59°25' E 018°21'4 5.1
2017-May-22 10:08N 59°29' E 018°27'427.3
2017-May-22 09:59N 59°25' E 018°22'1 2.8
2017-May-22 09:29N 59°24' E 018°21'0 0.4
2017-May-22 08:59N 59°24' E 018°22'0 0.9
2017-May-22 08:30N 59°24' E 018°21'714.8
2017-May-22 08:00N 59°19' E 018°10'0 0.0
2017-May-22 07:30N 59°19' E 018°10'0 0.0
2017-May-22 07:00N 59°19' E 018°10'0 0.0
2017-May-22 06:30N 59°19' E 018°10'0 0.0
2017-May-22 06:00N 59°19' E 018°10'0 0.0
2017-May-22 05:30N 59°19' E 018°10'0 0.0
2017-May-22 05:01N 59°19' E 018°10'0 0.0
2017-May-22 04:30N 59°19' E 018°10'0 0.0
2017-May-22 04:00N 59°19' E 018°10'0 0.0
2017-May-22 03:30N 59°19' E 018°10'0 0.0
2017-May-22 03:00N 59°19' E 018°10'0 0.0
2017-May-22 02:30N 59°19' E 018°10'0 0.0
2017-May-22 02:00N 59°19' E 018°10'0 0.0
2017-May-22 01:30N 59°19' E 018°10'0 0.0
2017-May-22 01:00N 59°19' E 018°10'0 0.0
2017-May-22 00:30N 59°19' E 018°10'0 0.0
2017-May-22 00:00N 59°19' E 018°10'0 0.0
2017-May-21 23:30N 59°19' E 018°10'0 0.0
2017-May-21 23:00N 59°19' E 018°10'0 0.0
2017-May-21 22:30N 59°19' E 018°10'0 0.0
2017-May-21 22:00N 59°19' E 018°10'0 0.0
2017-May-21 21:30N 59°19' E 018°10'0 0.0
2017-May-21 21:00N 59°19' E 018°10'0 0.0
2017-May-21 20:30N 59°19' E 018°10'0 0.0
2017-May-21 20:00N 59°19' E 018°10'0 0.0
2017-May-21 19:30N 59°19' E 018°10'0 0.0
2017-May-21 19:00N 59°19' E 018°10'0 0.0
2017-May-21 18:30N 59°19' E 018°10'0 0.0
2017-May-21 18:00N 59°19' E 018°10'0 0.0
2017-May-21 17:30N 59°19' E 018°10'0 0.0
2017-May-21 17:00N 59°19' E 018°10'0 0.0
2017-May-21 16:30N 59°19' E 018°10'0 0.0
2017-May-21 16:00N 59°19' E 018°10'0 0.0
2017-May-21 15:30N 59°19' E 018°10'11 1.3
2017-May-21 06:54N 59°27' E 018°25'511.9
2017-May-21 06:30N 59°23' E 018°20'713.3
2017-May-21 06:00N 59°19' E 018°10'0 0.0
2017-May-21 05:30N 59°19' E 018°10'0 0.0
2017-May-21 05:00N 59°19' E 018°10'0 0.0
2017-May-21 04:30N 59°19' E 018°10'0 0.0
2017-May-21 04:00N 59°19' E 018°10'0 0.0
2017-May-21 03:30N 59°19' E 018°10'0 0.0
2017-May-21 03:00N 59°19' E 018°10'0 0.0
2017-May-21 02:30N 59°19' E 018°10'0 0.0
2017-May-21 02:00N 59°19' E 018°10'0 0.0
2017-May-21 01:30N 59°19' E 018°10'0 0.0
2017-May-21 01:00N 59°19' E 018°10'0 0.0
2017-May-21 00:30N 59°19' E 018°10'0 0.0
2017-May-21 00:00N 59°19' E 018°10'0 0.0
2017-May-20 23:30N 59°19' E 018°10'0 0.0
2017-May-20 23:00N 59°19' E 018°10'0 0.0
2017-May-20 22:30N 59°19' E 018°10'0 0.0
2017-May-20 22:00N 59°19' E 018°10'0 0.0
2017-May-20 21:30N 59°19' E 018°10'0 0.0
2017-May-20 21:00N 59°19' E 018°10'814.4
2017-May-20 20:28N 59°22' E 018°23'2 4.4
2017-May-20 20:00N 59°24' E 018°21'714.0
2017-May-20 19:30N 59°20' E 018°10'1 1.5
2017-May-20 19:00N 59°19' E 018°10'0 0.0
2017-May-20 18:30N 59°19' E 018°10'0 0.0
2017-May-20 18:00N 59°19' E 018°10'0 0.0
2017-May-20 17:22N 59°19' E 018°10'0 0.0
2017-May-20 17:00N 59°19' E 018°10'0 0.0
2017-May-20 16:30N 59°19' E 018°10'0 0.0
2017-May-20 16:00N 59°19' E 018°10'3 6.8
2017-May-20 15:30N 59°22' E 018°14'1 2.4
2017-May-20 15:01N 59°21' E 018°13'1 2.7
2017-May-20 14:30N 59°20' E 018°11'5 5.2
2017-May-20 13:30N 59°23' E 018°03'0 0.0
2017-May-20 13:00N 59°23' E 018°03'0 0.0
2017-May-20 12:30N 59°23' E 018°03'0 0.0
2017-May-20 12:00N 59°23' E 018°03'0 0.0
2017-May-20 11:30N 59°23' E 018°03'0 0.0
2017-May-20 11:00N 59°23' E 018°03'0 0.0
2017-May-20 10:30N 59°23' E 018°03'0 0.0
2017-May-20 10:00N 59°23' E 018°03'510.1
2017-May-20 09:30N 59°19' E 018°10'0 0.0
2017-May-20 09:00N 59°19' E 018°10'0 0.0
2017-May-20 08:30N 59°19' E 018°10'0 0.0
2017-May-20 08:00N 59°19' E 018°10'0 0.0
2017-May-20 07:27N 59°19' E 018°10'4 1.1
2017-May-20 03:55N 59°22' E 018°16'4 7.6
2017-May-20 03:24N 59°19' E 018°10'0 0.0
2017-May-20 03:00N 59°19' E 018°10'0 0.0
2017-May-20 02:30N 59°19' E 018°10'0 0.0
2017-May-20 02:00N 59°19' E 018°10'0 0.0
2017-May-20 01:30N 59°19' E 018°10'0 0.0
2017-May-20 01:00N 59°19' E 018°10'0 0.0
2017-May-20 00:30N 59°19' E 018°10'0 0.0
2017-May-20 00:00N 59°19' E 018°10'0 0.0
2017-May-19 23:30N 59°19' E 018°10'0 0.0
2017-May-19 23:00N 59°19' E 018°10'0 0.0
2017-May-19 22:30N 59°19' E 018°10'0 0.0
2017-May-19 22:00N 59°19' E 018°10'0 0.0
2017-May-19 21:30N 59°19' E 018°10'1 1.3
2017-May-19 21:01N 59°20' E 018°09'0 0.3
2017-May-19 20:30N 59°20' E 018°09'2 4.3
2017-May-19 20:00N 59°20' E 018°05'1 2.2
2017-May-19 19:30N 59°19' E 018°06'2 3.5
2017-May-19 19:00N 59°18' E 018°03'2 3.4
2017-May-19 18:30N 59°19' E 018°01'0 0.2
2017-May-19 18:00N 59°19' E 018°01'2 4.8
2017-May-19 17:30N 59°18' E 018°05'3 5.1
2017-May-19 17:00N 59°19' E 018°10'0 0.0
2017-May-19 16:30N 59°19' E 018°10'0 0.0
2017-May-19 16:00N 59°19' E 018°10'0 0.0
2017-May-19 15:30N 59°19' E 018°10'0 0.0
2017-May-19 15:00N 59°19' E 018°10'0 0.0
2017-May-19 14:01N 59°19' E 018°10'0 0.0
2017-May-19 13:31N 59°19' E 018°10'0 0.0
2017-May-19 13:00N 59°19' E 018°10'714.5
2017-May-19 12:30N 59°22' E 018°22'4 2.8
2017-May-19 11:16N 59°26' E 018°25'310.9
2017-May-19 11:00N 59°24' E 018°21'714.6
2017-May-19 10:30N 59°19' E 018°10'0 0.0
2017-May-19 10:00N 59°19' E 018°10'0 0.0
2017-May-19 09:30N 59°19' E 018°10'0 0.0
2017-May-19 09:00N 59°19' E 018°10'0 0.0
2017-May-19 08:30N 59°19' E 018°10'0 0.0
2017-May-19 08:00N 59°19' E 018°10'0 0.1
2017-May-19 07:31N 59°19' E 018°10'816.6
2017-May-19 07:00N 59°25' E 018°22'3 1.2
2017-May-19 04:19N 59°25' E 018°28'827.3
2017-May-19 04:00N 59°21' E 018°14'3 5.9
2017-May-19 03:31N 59°19' E 018°10'0 0.0
2017-May-19 03:01N 59°19' E 018°10'0 0.0
2017-May-19 02:31N 59°19' E 018°10'0 0.0
2017-May-19 02:01N 59°19' E 018°10'0 0.0
2017-May-19 01:30N 59°19' E 018°10'0 0.0
2017-May-19 01:01N 59°19' E 018°10'0 0.0
2017-May-19 00:31N 59°19' E 018°10'0 0.0
2017-May-19 00:01N 59°19' E 018°10'0 0.0
2017-May-18 23:31N 59°19' E 018°10'0 0.0
2017-May-18 23:01N 59°19' E 018°10'0 0.0
2017-May-18 22:31N 59°19' E 018°10'0 0.0
2017-May-18 22:01N 59°19' E 018°10'1 1.5
2017-May-18 21:30N 59°20' E 018°10'3 6.5
2017-May-18 21:00N 59°18' E 018°05'0 0.6
2017-May-18 20:30N 59°18' E 018°04'3 5.1
2017-May-18 20:01N 59°19' E 018°09'2 3.1
2017-May-18 19:30N 59°21' E 018°08'2 3.7
2017-May-18 19:00N 59°19' E 018°10'0 0.0
2017-May-18 18:30N 59°19' E 018°10'4 8.7
2017-May-18 18:00N 59°22' E 018°16'7 3.3
2017-May-18 15:52N 59°25' E 018°28'514.8
2017-May-18 15:31N 59°22' E 018°20'611.9
2017-May-18 15:00N 59°19' E 018°10'10 9.7
2017-May-18 14:00N 59°23' E 018°27'2 0.3
2017-May-18 07:46N 59°26' E 018°26'413.1
2017-May-18 07:28N 59°22' E 018°24'816.7
2017-May-18 07:00N 59°19' E 018°10'0 0.0
2017-May-18 06:31N 59°19' E 018°10'0 0.0
2017-May-18 06:01N 59°19' E 018°10'0 0.0
2017-May-18 05:31N 59°19' E 018°10'0 0.0
2017-May-18 05:00N 59°19' E 018°10'0 0.0
2017-May-18 04:31N 59°19' E 018°10'0 0.0
2017-May-18 04:00N 59°19' E 018°10'0 0.0
2017-May-18 03:30N 59°19' E 018°10'0 0.0
2017-May-18 03:00N 59°19' E 018°10'0 0.0
2017-May-18 02:30N 59°19' E 018°10'0 0.0
2017-May-18 02:00N 59°19' E 018°10'0 0.0
2017-May-18 01:30N 59°19' E 018°10'0 0.0
2017-May-18 01:01N 59°19' E 018°10'0 0.0
2017-May-18 00:31N 59°19' E 018°10'0 0.0
2017-May-18 00:00N 59°19' E 018°10'0 0.0
2017-May-17 23:30N 59°19' E 018°10'0 0.0
2017-May-17 23:00N 59°19' E 018°10'0 0.0
2017-May-17 22:31N 59°19' E 018°10'0 0.0
2017-May-17 22:00N 59°19' E 018°10'0 0.0
2017-May-17 21:30N 59°19' E 018°10'0 0.0
2017-May-17 21:00N 59°19' E 018°10'0 0.0
2017-May-17 20:30N 59°19' E 018°10'0 0.0
2017-May-17 20:01N 59°19' E 018°10'2 3.3
2017-May-17 19:30N 59°21' E 018°08'2 3.3
2017-May-17 19:00N 59°19' E 018°10'0 0.2
2017-May-17 18:30N 59°19' E 018°10'0 0.0
2017-May-17 18:01N 59°19' E 018°10'0 0.0
2017-May-17 17:30N 59°19' E 018°10'0 0.0
2017-May-17 17:01N 59°19' E 018°10'0 0.0
2017-May-17 16:31N 59°19' E 018°10'0 0.0
2017-May-17 16:00N 59°19' E 018°10'0 0.0
2017-May-17 15:30N 59°19' E 018°10'0 0.0
2017-May-17 15:01N 59°19' E 018°10'0 0.0
2017-May-17 14:00N 59°19' E 018°10'0 0.0
2017-May-17 13:30N 59°19' E 018°10'0 0.0
2017-May-17 13:00N 59°19' E 018°10'0 0.0
2017-May-17 12:31N 59°19' E 018°10'0 0.0
2017-May-17 12:00N 59°19' E 018°10'917.9
2017-May-17 11:30N 59°22' E 018°27'5 0.2
2017-May-16 13:17N 59°17' E 018°31'3 7.9
2017-May-16 12:58N 59°18' E 018°26'2 4.1
2017-May-16 12:29N 59°17' E 018°22'3 5.2
2017-May-16 11:59N 59°15' E 018°23'1 2.8
2017-May-16 11:30N 59°14' E 018°22'0 0.0
2017-May-16 11:00N 59°14' E 018°22'0 0.0
2017-May-16 10:29N 59°14' E 018°22'0 0.0
2017-May-16 10:00N 59°14' E 018°22'0 0.0
2017-May-16 09:30N 59°14' E 018°22'2 3.7
2017-May-16 09:00N 59°16' E 018°21'4 8.0
2017-May-16 08:30N 59°18' E 018°14'3 5.6
2017-May-16 08:01N 59°19' E 018°10'0 0.1
2017-May-16 07:31N 59°19' E 018°10'0 0.0
2017-May-16 07:01N 59°19' E 018°10'0 0.0
2017-May-16 06:30N 59°19' E 018°10'0 0.0
2017-May-16 06:01N 59°19' E 018°10'0 0.0
2017-May-16 05:31N 59°19' E 018°10'0 0.0
2017-May-16 05:01N 59°19' E 018°10'0 0.0
2017-May-16 04:30N 59°19' E 018°10'0 0.0
2017-May-16 04:00N 59°19' E 018°10'0 0.0
2017-May-16 03:31N 59°19' E 018°10'0 0.0
2017-May-16 03:01N 59°19' E 018°10'0 0.0
2017-May-16 02:31N 59°19' E 018°10'0 0.0
2017-May-16 02:00N 59°19' E 018°10'0 0.0
2017-May-16 01:31N 59°19' E 018°10'0 0.0
2017-May-16 01:01N 59°19' E 018°10'0 0.0
2017-May-16 00:31N 59°19' E 018°10'0 0.0
2017-May-16 00:01N 59°19' E 018°10'0 0.0
2017-May-15 23:31N 59°19' E 018°10'0 0.0
2017-May-15 23:01N 59°19' E 018°10'0 0.0
2017-May-15 22:31N 59°19' E 018°10'0 0.0
2017-May-15 22:01N 59°19' E 018°10'0 0.0
2017-May-15 21:30N 59°19' E 018°10'0 0.0
2017-May-15 21:00N 59°19' E 018°10'0 0.0
2017-May-15 20:30N 59°19' E 018°10'0 0.0
2017-May-15 20:01N 59°19' E 018°10'0 0.0
2017-May-15 19:30N 59°19' E 018°10'0 0.0
2017-May-15 19:01N 59°19' E 018°10'0 0.0
2017-May-15 18:31N 59°19' E 018°10'0 0.0
2017-May-15 18:00N 59°19' E 018°10'0 0.0
2017-May-15 17:30N 59°19' E 018°10'0 0.0
2017-May-15 17:00N 59°19' E 018°10'0 0.0
2017-May-15 16:30N 59°19' E 018°10'0 0.0
2017-May-15 16:00N 59°19' E 018°10'0 0.0
2017-May-15 15:30N 59°19' E 018°10'0 0.0
2017-May-15 15:00N 59°19' E 018°10'0 0.0
2017-May-15 14:00N 59°19' E 018°10'0 0.0
2017-May-15 13:30N 59°19' E 018°10'0 0.0
2017-May-15 13:00N 59°19' E 018°10'1 1.5
2017-May-15 12:30N 59°20' E 018°10'0 0.1
2017-May-15 12:01N 59°20' E 018°10'1 1.2
2017-May-15 11:30N 59°19' E 018°10'0 0.3
2017-May-15 11:00N 59°19' E 018°10'0 0.0
2017-May-15 10:30N 59°19' E 018°10'0 0.0
2017-May-15 10:00N 59°19' E 018°10'0 0.0
2017-May-15 09:30N 59°19' E 018°10'0 0.0
2017-May-15 09:00N 59°19' E 018°10'0 0.0
2017-May-15 08:30N 59°19' E 018°10'0 0.0
2017-May-15 08:00N 59°19' E 018°10'0 0.0
2017-May-15 07:30N 59°19' E 018°10'0 0.0
2017-May-15 07:00N 59°19' E 018°10'0 0.0
2017-May-15 06:30N 59°19' E 018°10'0 0.0
2017-May-15 06:01N 59°19' E 018°10'0 0.0
2017-May-15 05:31N 59°19' E 018°10'0 0.0
2017-May-15 05:00N 59°19' E 018°10'0 0.0
2017-May-15 04:31N 59°19' E 018°10'0 0.0
2017-May-15 04:00N 59°19' E 018°10'0 0.0
2017-May-15 03:31N 59°19' E 018°10'0 0.0
2017-May-15 03:00N 59°19' E 018°10'0 0.0
2017-May-15 02:31N 59°19' E 018°10'0 0.0
2017-May-15 02:00N 59°19' E 018°10'0 0.0
2017-May-15 01:30N 59°19' E 018°10'0 0.0
2017-May-15 01:01N 59°19' E 018°10'0 0.0
2017-May-15 00:30N 59°19' E 018°10'0 0.0
2017-May-15 00:01N 59°19' E 018°10'0 0.0
2017-May-14 23:30N 59°19' E 018°10'0 0.0
2017-May-14 23:00N 59°19' E 018°10'0 0.0
2017-May-14 22:31N 59°19' E 018°10'0 0.0
2017-May-14 22:01N 59°19' E 018°10'0 0.0
2017-May-14 21:30N 59°19' E 018°10'0 0.0
2017-May-14 21:00N 59°19' E 018°10'0 0.0
2017-May-14 20:31N 59°19' E 018°10'0 0.0
2017-May-14 20:01N 59°19' E 018°10'0 0.0
2017-May-14 19:31N 59°19' E 018°10'0 0.0
2017-May-14 19:00N 59°19' E 018°10'0 0.0
2017-May-14 18:31N 59°19' E 018°10'0 0.0
2017-May-14 18:00N 59°19' E 018°10'0 0.0
2017-May-14 17:30N 59°19' E 018°10'0 0.0
2017-May-14 17:00N 59°19' E 018°10'0 0.0
2017-May-14 16:29N 59°19' E 018°10'0 0.0
2017-May-14 16:00N 59°19' E 018°10'0 0.0
2017-May-14 15:30N 59°19' E 018°10'0 0.0
2017-May-14 15:00N 59°19' E 018°10'0 0.0
2017-May-14 14:30N 59°19' E 018°10'0 0.0
2017-May-14 13:30N 59°19' E 018°10'0 0.0
2017-May-14 13:01N 59°19' E 018°10'0 0.0
2017-May-14 12:31N 59°19' E 018°10'0 0.0
2017-May-14 12:00N 59°19' E 018°10'0 0.0
2017-May-14 11:30N 59°19' E 018°10'0 0.0
2017-May-14 11:00N 59°19' E 018°10'0 0.0
2017-May-14 10:31N 59°19' E 018°10'0 0.0
2017-May-14 10:00N 59°19' E 018°10'0 0.0
2017-May-14 09:31N 59°19' E 018°10'0 0.0
2017-May-14 09:01N 59°19' E 018°10'0 0.0
2017-May-14 08:31N 59°19' E 018°10'0 0.0
2017-May-14 08:01N 59°19' E 018°10'0 0.0
2017-May-14 07:30N 59°19' E 018°10'0 0.0
2017-May-14 07:00N 59°19' E 018°10'0 0.0
2017-May-14 06:30N 59°19' E 018°10'0 0.0
2017-May-14 06:00N 59°19' E 018°10'0 0.0
2017-May-14 05:30N 59°19' E 018°10'0 0.0
2017-May-14 05:01N 59°19' E 018°10'0 0.0
2017-May-14 04:31N 59°19' E 018°10'0 0.0
2017-May-14 04:01N 59°19' E 018°10'0 0.0
2017-May-14 03:31N 59°19' E 018°10'0 0.0
2017-May-14 03:01N 59°19' E 018°10'0 0.0
2017-May-14 02:30N 59°19' E 018°10'0 0.0
2017-May-14 02:01N 59°19' E 018°10'0 0.0
2017-May-14 01:31N 59°19' E 018°10'0 0.0
2017-May-14 01:01N 59°19' E 018°10'0 0.0
2017-May-14 00:31N 59°19' E 018°10'0 0.0
2017-May-14 00:01N 59°19' E 018°10'0 0.0
2017-May-13 23:30N 59°19' E 018°10'0 0.0
2017-May-13 23:01N 59°19' E 018°10'0 0.0
2017-May-13 22:31N 59°19' E 018°10'0 0.0
2017-May-13 22:01N 59°19' E 018°10'0 0.0
2017-May-13 21:31N 59°19' E 018°10'0 0.0
2017-May-13 21:01N 59°19' E 018°10'0 0.0
2017-May-13 20:30N 59°19' E 018°10'  
Track history (hours):
 
Tides and Currents Weather Stations Pressure Air Temp Water Temp Dewpoint Dewpoint Depression Visibility Wind Speed Wind Dir Waves Ship Positions

Polis 9950

Last reported at 2017-May-23 20:30 UTC. Time now 2017-May-23 20:45 UTC.
Position N 59°19' E 018°10'.

Length 16 m.

Type: Law enforcement. MMSI: 265565600.

Date/timePositionNaut miles runAvg speedWind from/ knotsBaromVisibWave heightAir tempDewpointWater temp
2017-May-23 20:30N 59°19' E 018°10'0 0.0
2017-May-23 20:01N 59°19' E 018°10'0 0.0
2017-May-23 19:30N 59°19' E 018°10'0 0.0
2017-May-23 19:00N 59°19' E 018°10'0 0.0
2017-May-23 18:30N 59°19' E 018°10'0 0.0
2017-May-23 18:00N 59°19' E 018°10'0 0.0
2017-May-23 17:30N 59°19' E 018°10'0 0.0
2017-May-23 17:00N 59°19' E 018°10'0 0.0
2017-May-23 16:31N 59°19' E 018°10'0 0.0
2017-May-23 16:00N 59°19' E 018°10'0 0.0
2017-May-23 15:30N 59°19' E 018°10'0 0.0
2017-May-23 15:00N 59°19' E 018°10'0 0.0
2017-May-23 14:31N 59°19' E 018°10'8 6.1
2017-May-23 13:08N 59°23' E 018°25'317.7
2017-May-23 12:59N 59°25' E 018°22'1418.9
2017-May-23 12:16N 59°31' E 018°46'2 9.2
2017-May-23 12:00N 59°33' E 018°42'9 3.5
2017-May-23 09:31N 59°29' E 018°27'042.0
2017-May-23 09:31N 59°29' E 018°26'714.7
2017-May-23 09:00N 59°22' E 018°19'510.3
2017-May-23 08:30N 59°20' E 018°10'1 1.4
2017-May-23 07:59N 59°19' E 018°10'0 0.0
2017-May-23 07:30N 59°19' E 018°10'0 0.0
2017-May-23 06:57N 59°19' E 018°10'0 0.0
2017-May-23 06:26N 59°19' E 018°10'0 0.0
2017-May-23 06:00N 59°19' E 018°10'0 0.0
2017-May-23 05:30N 59°19' E 018°10'0 0.0
2017-May-23 05:00N 59°19' E 018°10'0 0.0
2017-May-23 04:30N 59°19' E 018°10'0 0.0
2017-May-23 04:00N 59°19' E 018°10'0 0.0
2017-May-23 03:30N 59°19' E 018°10'0 0.0
2017-May-23 03:00N 59°19' E 018°10'0 0.0
2017-May-23 02:30N 59°19' E 018°10'0 0.0
2017-May-23 02:00N 59°19' E 018°10'0 0.0
2017-May-23 01:30N 59°19' E 018°10'0 0.0
2017-May-23 01:01N 59°19' E 018°10'0 0.0
2017-May-23 00:30N 59°19' E 018°10'0 0.0
2017-May-23 00:00N 59°19' E 018°10'0 0.0
2017-May-22 23:30N 59°19' E 018°10'0 0.0
2017-May-22 23:00N 59°19' E 018°10'0 0.0
2017-May-22 22:30N 59°19' E 018°10'0 0.0
2017-May-22 22:00N 59°19' E 018°10'0 0.0
2017-May-22 21:30N 59°19' E 018°10'0 0.0
2017-May-22 21:00N 59°19' E 018°10'0 0.1
2017-May-22 20:30N 59°19' E 018°10'3 5.1
2017-May-22 20:00N 59°21' E 018°13'8 9.9
2017-May-22 19:13N 59°20' E 018°28'313.5
2017-May-22 18:59N 59°22' E 018°24'613.1
2017-May-22 18:30N 59°18' E 018°13'1 1.2
2017-May-22 18:00N 59°18' E 018°14'1 1.0
2017-May-22 17:30N 59°18' E 018°15'2 4.3
2017-May-22 17:00N 59°20' E 018°13'1 2.0
2017-May-22 16:30N 59°20' E 018°11'2 5.0
2017-May-22 16:00N 59°19' E 018°06'0 0.0
2017-May-22 15:30N 59°19' E 018°06'0 0.4
2017-May-22 15:00N 59°19' E 018°07'2 1.6
2017-May-22 14:00N 59°19' E 018°10'0 0.0
2017-May-22 13:30N 59°19' E 018°10'0 0.0
2017-May-22 13:00N 59°19' E 018°10'0 0.0
2017-May-22 12:30N 59°19' E 018°10'0 0.0
2017-May-22 12:00N 59°19' E 018°10'3 6.5
2017-May-22 11:30N 59°21' E 018°15'510.9
2017-May-22 11:01N 59°25' E 018°21'4 5.1
2017-May-22 10:08N 59°29' E 018°27'427.3
2017-May-22 09:59N 59°25' E 018°22'1 2.8
2017-May-22 09:29N 59°24' E 018°21'0 0.4
2017-May-22 08:59N 59°24' E 018°22'0 0.9
2017-May-22 08:30N 59°24' E 018°21'714.8
2017-May-22 08:00N 59°19' E 018°10'0 0.0
2017-May-22 07:30N 59°19' E 018°10'0 0.0
2017-May-22 07:00N 59°19' E 018°10'0 0.0
2017-May-22 06:30N 59°19' E 018°10'0 0.0
2017-May-22 06:00N 59°19' E 018°10'0 0.0
2017-May-22 05:30N 59°19' E 018°10'0 0.0
2017-May-22 05:01N 59°19' E 018°10'0 0.0
2017-May-22 04:30N 59°19' E 018°10'0 0.0
2017-May-22 04:00N 59°19' E 018°10'0 0.0
2017-May-22 03:30N 59°19' E 018°10'0 0.0
2017-May-22 03:00N 59°19' E 018°10'0 0.0
2017-May-22 02:30N 59°19' E 018°10'0 0.0
2017-May-22 02:00N 59°19' E 018°10'0 0.0
2017-May-22 01:30N 59°19' E 018°10'0 0.0
2017-May-22 01:00N 59°19' E 018°10'0 0.0
2017-May-22 00:30N 59°19' E 018°10'0 0.0
2017-May-22 00:00N 59°19' E 018°10'0 0.0
2017-May-21 23:30N 59°19' E 018°10'0 0.0
2017-May-21 23:00N 59°19' E 018°10'0 0.0
2017-May-21 22:30N 59°19' E 018°10'0 0.0
2017-May-21 22:00N 59°19' E 018°10'0 0.0
2017-May-21 21:30N 59°19' E 018°10'0 0.0
2017-May-21 21:00N 59°19' E 018°10'0 0.0
2017-May-21 20:30N 59°19' E 018°10'0 0.0
2017-May-21 20:00N 59°19' E 018°10'0 0.0
2017-May-21 19:30N 59°19' E 018°10'0 0.0
2017-May-21 19:00N 59°19' E 018°10'0 0.0
2017-May-21 18:30N 59°19' E 018°10'0 0.0
2017-May-21 18:00N 59°19' E 018°10'0 0.0
2017-May-21 17:30N 59°19' E 018°10'0 0.0
2017-May-21 17:00N 59°19' E 018°10'0 0.0
2017-May-21 16:30N 59°19' E 018°10'0 0.0
2017-May-21 16:00N 59°19' E 018°10'0 0.0
2017-May-21 15:30N 59°19' E 018°10'11 1.3
2017-May-21 06:54N 59°27' E 018°25'511.9
2017-May-21 06:30N 59°23' E 018°20'713.3
2017-May-21 06:00N 59°19' E 018°10'0 0.0
2017-May-21 05:30N 59°19' E 018°10'0 0.0
2017-May-21 05:00N 59°19' E 018°10'0 0.0
2017-May-21 04:30N 59°19' E 018°10'0 0.0
2017-May-21 04:00N 59°19' E 018°10'0 0.0
2017-May-21 03:30N 59°19' E 018°10'0 0.0
2017-May-21 03:00N 59°19' E 018°10'0 0.0
2017-May-21 02:30N 59°19' E 018°10'0 0.0
2017-May-21 02:00N 59°19' E 018°10'0 0.0
2017-May-21 01:30N 59°19' E 018°10'0 0.0
2017-May-21 01:00N 59°19' E 018°10'0 0.0
2017-May-21 00:30N 59°19' E 018°10'0 0.0
2017-May-21 00:00N 59°19' E 018°10'0 0.0
2017-May-20 23:30N 59°19' E 018°10'0 0.0
2017-May-20 23:00N 59°19' E 018°10'0 0.0
2017-May-20 22:30N 59°19' E 018°10'0 0.0
2017-May-20 22:00N 59°19' E 018°10'0 0.0
2017-May-20 21:30N 59°19' E 018°10'0 0.0
2017-May-20 21:00N 59°19' E 018°10'814.4
2017-May-20 20:28N 59°22' E 018°23'2 4.4
2017-May-20 20:00N 59°24' E 018°21'714.0
2017-May-20 19:30N 59°20' E 018°10'1 1.5
2017-May-20 19:00N 59°19' E 018°10'0 0.0
2017-May-20 18:30N 59°19' E 018°10'0 0.0
2017-May-20 18:00N 59°19' E 018°10'0 0.0
2017-May-20 17:22N 59°19' E 018°10'0 0.0
2017-May-20 17:00N 59°19' E 018°10'0 0.0
2017-May-20 16:30N 59°19' E 018°10'0 0.0
2017-May-20 16:00N 59°19' E 018°10'3 6.8
2017-May-20 15:30N 59°22' E 018°14'1 2.4
2017-May-20 15:01N 59°21' E 018°13'1 2.7
2017-May-20 14:30N 59°20' E 018°11'5 5.2
2017-May-20 13:30N 59°23' E 018°03'0 0.0
2017-May-20 13:00N 59°23' E 018°03'0 0.0
2017-May-20 12:30N 59°23' E 018°03'0 0.0
2017-May-20 12:00N 59°23' E 018°03'0 0.0
2017-May-20 11:30N 59°23' E 018°03'0 0.0
2017-May-20 11:00N 59°23' E 018°03'0 0.0
2017-May-20 10:30N 59°23' E 018°03'0 0.0
2017-May-20 10:00N 59°23' E 018°03'510.1
2017-May-20 09:30N 59°19' E 018°10'0 0.0
2017-May-20 09:00N 59°19' E 018°10'0 0.0
2017-May-20 08:30N 59°19' E 018°10'0 0.0
2017-May-20 08:00N 59°19' E 018°10'0 0.0
2017-May-20 07:27N 59°19' E 018°10'4 1.1
2017-May-20 03:55N 59°22' E 018°16'4 7.6
2017-May-20 03:24N 59°19' E 018°10'0 0.0
2017-May-20 03:00N 59°19' E 018°10'0 0.0
2017-May-20 02:30N 59°19' E 018°10'0 0.0
2017-May-20 02:00N 59°19' E 018°10'0 0.0
2017-May-20 01:30N 59°19' E 018°10'0 0.0
2017-May-20 01:00N 59°19' E 018°10'0 0.0
2017-May-20 00:30N 59°19' E 018°10'0 0.0
2017-May-20 00:00N 59°19' E 018°10'0 0.0
2017-May-19 23:30N 59°19' E 018°10'0 0.0
2017-May-19 23:00N 59°19' E 018°10'0 0.0
2017-May-19 22:30N 59°19' E 018°10'0 0.0
2017-May-19 22:00N 59°19' E 018°10'0 0.0
2017-May-19 21:30N 59°19' E 018°10'1 1.3
2017-May-19 21:01N 59°20' E 018°09'0 0.3
2017-May-19 20:30N 59°20' E 018°09'2 4.3
2017-May-19 20:00N 59°20' E 018°05'1 2.2
2017-May-19 19:30N 59°19' E 018°06'2 3.5
2017-May-19 19:00N 59°18' E 018°03'2 3.4
2017-May-19 18:30N 59°19' E 018°01'0 0.2
2017-May-19 18:00N 59°19' E 018°01'2 4.8
2017-May-19 17:30N 59°18' E 018°05'3 5.1
2017-May-19 17:00N 59°19' E 018°10'0 0.0
2017-May-19 16:30N 59°19' E 018°10'0 0.0
2017-May-19 16:00N 59°19' E 018°10'0 0.0
2017-May-19 15:30N 59°19' E 018°10'0 0.0
2017-May-19 15:00N 59°19' E 018°10'0 0.0
2017-May-19 14:01N 59°19' E 018°10'0 0.0
2017-May-19 13:31N 59°19' E 018°10'0 0.0
2017-May-19 13:00N 59°19' E 018°10'714.5
2017-May-19 12:30N 59°22' E 018°22'4 2.8
2017-May-19 11:16N 59°26' E 018°25'310.9
2017-May-19 11:00N 59°24' E 018°21'714.6
2017-May-19 10:30N 59°19' E 018°10'0 0.0
2017-May-19 10:00N 59°19' E 018°10'0 0.0
2017-May-19 09:30N 59°19' E 018°10'0 0.0
2017-May-19 09:00N 59°19' E 018°10'0 0.0
2017-May-19 08:30N 59°19' E 018°10'0 0.0
2017-May-19 08:00N 59°19' E 018°10'0 0.1
2017-May-19 07:31N 59°19' E 018°10'816.6
2017-May-19 07:00N 59°25' E 018°22'3 1.2
2017-May-19 04:19N 59°25' E 018°28'827.3
2017-May-19 04:00N 59°21' E 018°14'3 5.9
2017-May-19 03:31N 59°19' E 018°10'0 0.0
2017-May-19 03:01N 59°19' E 018°10'0 0.0
2017-May-19 02:31N 59°19' E 018°10'0 0.0
2017-May-19 02:01N 59°19' E 018°10'0 0.0
2017-May-19 01:30N 59°19' E 018°10'0 0.0
2017-May-19 01:01N 59°19' E 018°10'0 0.0
2017-May-19 00:31N 59°19' E 018°10'0 0.0
2017-May-19 00:01N 59°19' E 018°10'0 0.0
2017-May-18 23:31N 59°19' E 018°10'0 0.0
2017-May-18 23:01N 59°19' E 018°10'0 0.0
2017-May-18 22:31N 59°19' E 018°10'0 0.0
2017-May-18 22:01N 59°19' E 018°10'1 1.5
2017-May-18 21:30N 59°20' E 018°10'3 6.5
2017-May-18 21:00N 59°18' E 018°05'0 0.6
2017-May-18 20:30N 59°18' E 018°04'3 5.1
2017-May-18 20:01N 59°19' E 018°09'2 3.1
2017-May-18 19:30N 59°21' E 018°08'2 3.7
2017-May-18 19:00N 59°19' E 018°10'0 0.0
2017-May-18 18:30N 59°19' E 018°10'4 8.7
2017-May-18 18:00N 59°22' E 018°16'7 3.3
2017-May-18 15:52N 59°25' E 018°28'514.8
2017-May-18 15:31N 59°22' E 018°20'611.9
2017-May-18 15:00N 59°19' E 018°10'10 9.7
2017-May-18 14:00N 59°23' E 018°27'2 0.3
2017-May-18 07:46N 59°26' E 018°26'413.1
2017-May-18 07:28N 59°22' E 018°24'816.7
2017-May-18 07:00N 59°19' E 018°10'0 0.0
2017-May-18 06:31N 59°19' E 018°10'0 0.0
2017-May-18 06:01N 59°19' E 018°10'0 0.0
2017-May-18 05:31N 59°19' E 018°10'0 0.0
2017-May-18 05:00N 59°19' E 018°10'0 0.0
2017-May-18 04:31N 59°19' E 018°10'0 0.0
2017-May-18 04:00N 59°19' E 018°10'0 0.0
2017-May-18 03:30N 59°19' E 018°10'0 0.0
2017-May-18 03:00N 59°19' E 018°10'0 0.0
2017-May-18 02:30N 59°19' E 018°10'0 0.0
2017-May-18 02:00N 59°19' E 018°10'0 0.0
2017-May-18 01:30N 59°19' E 018°10'0 0.0
2017-May-18 01:01N 59°19' E 018°10'0 0.0
2017-May-18 00:31N 59°19' E 018°10'0 0.0
2017-May-18 00:00N 59°19' E 018°10'0 0.0
2017-May-17 23:30N 59°19' E 018°10'0 0.0
2017-May-17 23:00N 59°19' E 018°10'0 0.0
2017-May-17 22:31N 59°19' E 018°10'0 0.0
2017-May-17 22:00N 59°19' E 018°10'0 0.0
2017-May-17 21:30N 59°19' E 018°10'0 0.0
2017-May-17 21:00N 59°19' E 018°10'0 0.0
2017-May-17 20:30N 59°19' E 018°10'0 0.0
2017-May-17 20:01N 59°19' E 018°10'2 3.3
2017-May-17 19:30N 59°21' E 018°08'2 3.3
2017-May-17 19:00N 59°19' E 018°10'0 0.2
2017-May-17 18:30N 59°19' E 018°10'0 0.0
2017-May-17 18:01N 59°19' E 018°10'0 0.0
2017-May-17 17:30N 59°19' E 018°10'0 0.0
2017-May-17 17:01N 59°19' E 018°10'0 0.0
2017-May-17 16:31N 59°19' E 018°10'0 0.0
2017-May-17 16:00N 59°19' E 018°10'0 0.0
2017-May-17 15:30N 59°19' E 018°10'0 0.0
2017-May-17 15:01N 59°19' E 018°10'0 0.0
2017-May-17 14:00N 59°19' E 018°10'0 0.0
2017-May-17 13:30N 59°19' E 018°10'0 0.0
2017-May-17 13:00N 59°19' E 018°10'0 0.0
2017-May-17 12:31N 59°19' E 018°10'0 0.0
2017-May-17 12:00N 59°19' E 018°10'917.9
2017-May-17 11:30N 59°22' E 018°27'5 0.2
2017-May-16 13:17N 59°17' E 018°31'3 7.9
2017-May-16 12:58N 59°18' E 018°26'2 4.1
2017-May-16 12:29N 59°17' E 018°22'3 5.2
2017-May-16 11:59N 59°15' E 018°23'1 2.8
2017-May-16 11:30N 59°14' E 018°22'0 0.0
2017-May-16 11:00N 59°14' E 018°22'0 0.0
2017-May-16 10:29N 59°14' E 018°22'0 0.0
2017-May-16 10:00N 59°14' E 018°22'0 0.0
2017-May-16 09:30N 59°14' E 018°22'2 3.7
2017-May-16 09:00N 59°16' E 018°21'4 8.0
2017-May-16 08:30N 59°18' E 018°14'3 5.6
2017-May-16 08:01N 59°19' E 018°10'0 0.1
2017-May-16 07:31N 59°19' E 018°10'0 0.0
2017-May-16 07:01N 59°19' E 018°10'0 0.0
2017-May-16 06:30N 59°19' E 018°10'0 0.0
2017-May-16 06:01N 59°19' E 018°10'0 0.0
2017-May-16 05:31N 59°19' E 018°10'0 0.0
2017-May-16 05:01N 59°19' E 018°10'0 0.0
2017-May-16 04:30N 59°19' E 018°10'0 0.0
2017-May-16 04:00N 59°19' E 018°10'0 0.0
2017-May-16 03:31N 59°19' E 018°10'0 0.0
2017-May-16 03:01N 59°19' E 018°10'0 0.0
2017-May-16 02:31N 59°19' E 018°10'0 0.0
2017-May-16 02:00N 59°19' E 018°10'0 0.0
2017-May-16 01:31N 59°19' E 018°10'0 0.0
2017-May-16 01:01N 59°19' E 018°10'0 0.0
2017-May-16 00:31N 59°19' E 018°10'0 0.0
2017-May-16 00:01N 59°19' E 018°10'0 0.0
2017-May-15 23:31N 59°19' E 018°10'0 0.0
2017-May-15 23:01N 59°19' E 018°10'0 0.0
2017-May-15 22:31N 59°19' E 018°10'0 0.0
2017-May-15 22:01N 59°19' E 018°10'0 0.0
2017-May-15 21:30N 59°19' E 018°10'0 0.0
2017-May-15 21:00N 59°19' E 018°10'0 0.0
2017-May-15 20:30N 59°19' E 018°10'0 0.0
2017-May-15 20:01N 59°19' E 018°10'0 0.0
2017-May-15 19:30N 59°19' E 018°10'0 0.0
2017-May-15 19:01N 59°19' E 018°10'0 0.0
2017-May-15 18:31N 59°19' E 018°10'0 0.0
2017-May-15 18:00N 59°19' E 018°10'0 0.0
2017-May-15 17:30N 59°19' E 018°10'0 0.0
2017-May-15 17:00N 59°19' E 018°10'0 0.0
2017-May-15 16:30N 59°19' E 018°10'0 0.0
2017-May-15 16:00N 59°19' E 018°10'0 0.0
2017-May-15 15:30N 59°19' E 018°10'0 0.0
2017-May-15 15:00N 59°19' E 018°10'0 0.0
2017-May-15 14:00N 59°19' E 018°10'0 0.0
2017-May-15 13:30N 59°19' E 018°10'0 0.0
2017-May-15 13:00N 59°19' E 018°10'1 1.5
2017-May-15 12:30N 59°20' E 018°10'0 0.1
2017-May-15 12:01N 59°20' E 018°10'1 1.2
2017-May-15 11:30N 59°19' E 018°10'0 0.3
2017-May-15 11:00N 59°19' E 018°10'0 0.0
2017-May-15 10:30N 59°19' E 018°10'0 0.0
2017-May-15 10:00N 59°19' E 018°10'0 0.0
2017-May-15 09:30N 59°19' E 018°10'0 0.0
2017-May-15 09:00N 59°19' E 018°10'0 0.0
2017-May-15 08:30N 59°19' E 018°10'0 0.0
2017-May-15 08:00N 59°19' E 018°10'0 0.0
2017-May-15 07:30N 59°19' E 018°10'0 0.0
2017-May-15 07:00N 59°19' E 018°10'0 0.0
2017-May-15 06:30N 59°19' E 018°10'0 0.0
2017-May-15 06:01N 59°19' E 018°10'0 0.0
2017-May-15 05:31N 59°19' E 018°10'0 0.0
2017-May-15 05:00N 59°19' E 018°10'0 0.0
2017-May-15 04:31N 59°19' E 018°10'0 0.0
2017-May-15 04:00N 59°19' E 018°10'0 0.0
2017-May-15 03:31N 59°19' E 018°10'0 0.0
2017-May-15 03:00N 59°19' E 018°10'0 0.0
2017-May-15 02:31N 59°19' E 018°10'0 0.0
2017-May-15 02:00N 59°19' E 018°10'0 0.0
2017-May-15 01:30N 59°19' E 018°10'0 0.0
2017-May-15 01:01N 59°19' E 018°10'0 0.0
2017-May-15 00:30N 59°19' E 018°10'0 0.0
2017-May-15 00:01N 59°19' E 018°10'0 0.0
2017-May-14 23:30N 59°19' E 018°10'0 0.0
2017-May-14 23:00N 59°19' E 018°10'0 0.0
2017-May-14 22:31N 59°19' E 018°10'0 0.0
2017-May-14 22:01N 59°19' E 018°10'0 0.0
2017-May-14 21:30N 59°19' E 018°10'0 0.0
2017-May-14 21:00N 59°19' E 018°10'0 0.0
2017-May-14 20:31N 59°19' E 018°10'0 0.0
2017-May-14 20:01N 59°19' E 018°10'0 0.0
2017-May-14 19:31N 59°19' E 018°10'0 0.0
2017-May-14 19:00N 59°19' E 018°10'0 0.0
2017-May-14 18:31N 59°19' E 018°10'0 0.0
2017-May-14 18:00N 59°19' E 018°10'0 0.0
2017-May-14 17:30N 59°19' E 018°10'0 0.0
2017-May-14 17:00N 59°19' E 018°10'0 0.0
2017-May-14 16:29N 59°19' E 018°10'0 0.0
2017-May-14 16:00N 59°19' E 018°10'0 0.0
2017-May-14 15:30N 59°19' E 018°10'0 0.0
2017-May-14 15:00N 59°19' E 018°10'0 0.0
2017-May-14 14:30N 59°19' E 018°10'0 0.0
2017-May-14 13:30N 59°19' E 018°10'0 0.0
2017-May-14 13:01N 59°19' E 018°10'0 0.0
2017-May-14 12:31N 59°19' E 018°10'0 0.0
2017-May-14 12:00N 59°19' E 018°10'0 0.0
2017-May-14 11:30N 59°19' E 018°10'0 0.0
2017-May-14 11:00N 59°19' E 018°10'0 0.0
2017-May-14 10:31N 59°19' E 018°10'0 0.0
2017-May-14 10:00N 59°19' E 018°10'0 0.0
2017-May-14 09:31N 59°19' E 018°10'0 0.0
2017-May-14 09:01N 59°19' E 018°10'0 0.0
2017-May-14 08:31N 59°19' E 018°10'0 0.0
2017-May-14 08:01N 59°19' E 018°10'0 0.0
2017-May-14 07:30N 59°19' E 018°10'0 0.0
2017-May-14 07:00N 59°19' E 018°10'0 0.0
2017-May-14 06:30N 59°19' E 018°10'0 0.0
2017-May-14 06:00N 59°19' E 018°10'0 0.0
2017-May-14 05:30N 59°19' E 018°10'0 0.0
2017-May-14 05:01N 59°19' E 018°10'0 0.0
2017-May-14 04:31N 59°19' E 018°10'0 0.0
2017-May-14 04:01N 59°19' E 018°10'0 0.0
2017-May-14 03:31N 59°19' E 018°10'0 0.0
2017-May-14 03:01N 59°19' E 018°10'0 0.0
2017-May-14 02:30N 59°19' E 018°10'0 0.0
2017-May-14 02:01N 59°19' E 018°10'0 0.0
2017-May-14 01:31N 59°19' E 018°10'0 0.0
2017-May-14 01:01N 59°19' E 018°10'0 0.0
2017-May-14 00:31N 59°19' E 018°10'0 0.0
2017-May-14 00:01N 59°19' E 018°10'0 0.0
2017-May-13 23:30N 59°19' E 018°10'0 0.0
2017-May-13 23:01N 59°19' E 018°10'0 0.0
2017-May-13 22:31N 59°19' E 018°10'0 0.0
2017-May-13 22:01N 59°19' E 018°10'0 0.0
2017-May-13 21:31N 59°19' E 018°10'0 0.0
2017-May-13 21:01N 59°19' E 018°10'0 0.0
2017-May-13 20:30N 59°19' E 018°10'  

Dump ship's entire track history